Time;durP1;ratioP1;P1;durP2;ratioP2;P2;SDS_P1;SDS_P2;PMS_P1;PMS_P2;Temp;Humidity;BMP_temperature;BMP_pressure;BME280_temperature;BME280_humidity;BME280_pressure;Samples;Min_cycle;Max_cycle;Signal;HPM_P1;HPM_P2
2022/09/06 00:01:10;;;;;;;2.30;2.10;;;18.40;99.90;;;;;;5077626;28;20982;-78
2022/09/06 00:03:36;;;;;;;2.30;2.00;;;18.40;99.90;;;;;;5048357;28;21113;-78
2022/09/06 00:06:08;;;;;;;2.60;2.03;;;18.40;99.90;;;;;;5063791;28;20635;-78
2022/09/06 00:08:35;;;;;;;1.93;1.83;;;18.40;99.90;;;;;;5077038;28;20720;-78
2022/09/06 00:11:03;;;;;;;2.30;2.10;;;18.50;99.60;;;;;;5071720;28;20781;-78
2022/09/06 00:13:30;;;;;;;2.17;1.97;;;18.50;99.90;;;;;;5088492;28;20620;-78
2022/09/06 00:16:03;;;;;;;1.83;1.73;;;18.40;99.90;;;;;;5075539;28;20618;-78
2022/09/06 00:18:30;;;;;;;2.57;2.37;;;18.30;99.90;;;;;;5070261;28;20717;-79
2022/09/06 00:20:57;;;;;;;2.60;2.33;;;18.30;99.90;;;;;;5068390;28;20728;-79
2022/09/06 00:23:24;;;;;;;3.83;1.80;;;18.30;99.90;;;;;;5079281;28;21532;-78
2022/09/06 00:25:50;;;;;;;3.00;2.77;;;18.30;99.90;;;;;;5069583;28;20664;-79
2022/09/06 00:28:19;;;;;;;2.00;1.73;;;18.40;99.90;;;;;;5076469;28;20708;-79
2022/09/06 00:30:46;;;;;;;2.60;1.93;;;18.30;99.90;;;;;;5068935;28;20976;-79
2022/09/06 00:33:13;;;;;;;2.20;2.03;;;18.30;99.90;;;;;;5067984;28;20636;-78
2022/09/06 00:35:40;;;;;;;2.40;2.20;;;18.10;99.90;;;;;;5069234;28;20665;-78
2022/09/06 00:38:07;;;;;;;2.40;2.10;;;18.20;99.90;;;;;;5074246;28;20723;-79
2022/09/06 00:40:35;;;;;;;2.27;2.00;;;18.30;99.90;;;;;;5081834;28;20628;-78
2022/09/06 00:43:02;;;;;;;3.10;2.20;;;18.10;99.90;;;;;;5067606;28;20629;-79
2022/09/06 00:45:32;;;;;;;2.10;1.90;;;17.90;99.90;;;;;;5081414;28;20716;-79
2022/09/06 00:48:01;;;;;;;2.83;2.30;;;17.90;99.90;;;;;;5078749;28;20729;-79
2022/09/06 00:50:28;;;;;;;2.97;2.43;;;17.90;99.90;;;;;;5081312;28;20665;-78
2022/09/06 00:52:55;;;;;;;2.20;1.90;;;18.00;99.90;;;;;;5067762;28;20992;-79
2022/09/06 00:55:23;;;;;;;2.20;2.00;;;18.10;99.90;;;;;;5071466;28;20682;-79
2022/09/06 00:57:50;;;;;;;3.77;1.70;;;17.90;99.90;;;;;;5082175;28;20694;-79
2022/09/06 01:00:19;;;;;;;2.30;1.70;;;17.90;99.90;;;;;;5078299;28;20633;-79
2022/09/06 01:02:47;;;;;;;2.27;1.90;;;17.90;99.90;;;;;;5069660;28;20627;-79
2022/09/06 01:05:15;;;;;;;2.07;1.83;;;17.90;99.90;;;;;;5087972;28;21222;-78
2022/09/06 01:07:54;;;;;;;1.80;1.70;;;17.90;99.90;;;;;;5081469;28;21206;-78
2022/09/06 01:10:45;;;;;;;2.50;2.30;;;17.90;99.90;;;;;;5067248;28;20638;-78
2022/09/06 01:13:25;;;;;;;1.83;1.73;;;18.00;99.90;;;;;;5080456;28;20639;-78
2022/09/06 01:16:01;;;;;;;1.90;1.70;;;18.00;99.90;;;;;;5073960;28;21070;-79
2022/09/06 01:18:45;;;;;;;2.17;1.97;;;18.00;99.90;;;;;;5065785;28;21256;-80
2022/09/06 01:21:34;;;;;;;2.30;2.10;;;18.00;99.90;;;;;;5073138;28;20620;-78
2022/09/06 01:24:34;;;;;;;2.57;1.97;;;18.00;99.90;;;;;;5091575;28;21140;-78
2022/09/06 01:27:24;;;;;;;2.10;2.00;;;18.00;99.90;;;;;;5089721;28;20633;-80
2022/09/06 01:29:52;;;;;;;1.90;1.80;;;17.90;99.90;;;;;;5073298;28;20613;-79
2022/09/06 01:32:27;;;;;;;2.23;1.90;;;17.80;99.90;;;;;;5072945;28;20621;-78
2022/09/06 01:35:02;;;;;;;2.97;2.33;;;17.90;99.90;;;;;;5071640;28;20752;-79
2022/09/06 01:37:31;;;;;;;2.30;2.07;;;17.90;99.90;;;;;;5069441;28;20631;-78
2022/09/06 01:39:59;;;;;;;2.30;2.10;;;17.90;99.90;;;;;;5085426;28;20629;-79
2022/09/06 01:42:30;;;;;;;2.13;1.93;;;17.90;99.90;;;;;;5075195;28;20625;-79
2022/09/06 01:45:01;;;;;;;2.67;1.97;;;17.90;99.90;;;;;;5066023;28;20668;-79
2022/09/06 01:47:39;;;;;;;2.03;1.83;;;17.80;99.90;;;;;;5071299;28;20625;-79
2022/09/06 01:50:33;;;;;;;1.90;1.80;;;17.70;99.90;;;;;;5090748;28;21260;-78
2022/09/06 01:53:16;;;;;;;1.83;1.67;;;17.70;99.90;;;;;;5091062;28;20663;-79
2022/09/06 01:55:51;;;;;;;2.20;2.00;;;17.60;99.90;;;;;;5075400;28;20679;-79
2022/09/06 01:58:47;;;;;;;2.57;2.37;;;17.60;99.90;;;;;;5069766;28;20683;-79
2022/09/06 02:01:21;;;;;;;2.20;2.00;;;17.60;99.90;;;;;;5083573;28;21086;-79
2022/09/06 02:03:54;;;;;;;2.70;1.93;;;17.60;99.90;;;;;;5082427;28;21140;-80
2022/09/06 02:06:26;;;;;;;1.70;1.60;;;17.50;99.90;;;;;;5069885;28;20633;-80
2022/09/06 02:08:57;;;;;;;2.87;2.67;;;17.50;99.90;;;;;;5067239;28;20630;-79
2022/09/06 02:11:27;;;;;;;2.10;1.93;;;17.50;99.90;;;;;;5080645;28;20640;-79
2022/09/06 02:13:58;;;;;;;1.73;1.63;;;17.40;99.90;;;;;;5081750;28;20617;-80
2022/09/06 02:16:30;;;;;;;2.47;2.27;;;17.30;99.90;;;;;;5069600;28;21004;-80
2022/09/06 02:19:02;;;;;;;2.43;1.97;;;17.40;99.90;;;;;;5071226;28;20646;-80
2022/09/06 02:21:34;;;;;;;3.10;2.37;;;17.30;99.90;;;;;;5084702;28;20614;-80
2022/09/06 02:24:09;;;;;;;1.80;1.50;;;17.00;99.90;;;;;;5070781;28;20637;-80
2022/09/06 02:26:40;;;;;;;2.13;1.93;;;17.10;99.90;;;;;;5084164;28;20616;-79
2022/09/06 02:29:09;;;;;;;2.33;2.13;;;17.30;99.90;;;;;;5072095;28;20628;-80
2022/09/06 02:31:42;;;;;;;2.20;1.93;;;17.50;99.90;;;;;;5067913;28;20735;-79
2022/09/06 02:34:13;;;;;;;3.50;2.40;;;17.60;99.90;;;;;;5072556;28;20655;-79
2022/09/06 02:36:41;;;;;;;2.40;1.87;;;17.70;99.90;;;;;;5070259;28;20659;-79
2022/09/06 02:39:10;;;;;;;2.47;2.20;;;17.80;99.90;;;;;;5083476;28;20646;-79
2022/09/06 02:41:39;;;;;;;2.83;2.50;;;17.90;99.90;;;;;;5050263;28;20618;-80
2022/09/06 02:44:06;;;;;;;1.90;1.80;;;18.00;99.90;;;;;;5071993;28;20616;-80
2022/09/06 02:46:38;;;;;;;2.87;2.60;;;18.10;99.90;;;;;;5077821;28;20622;-79
2022/09/06 02:49:06;;;;;;;2.10;2.00;;;18.10;99.90;;;;;;5077074;28;20660;-80
2022/09/06 02:51:36;;;;;;;2.23;1.90;;;18.20;99.90;;;;;;5078060;28;20637;-79
2022/09/06 02:54:04;;;;;;;2.10;2.00;;;18.20;99.90;;;;;;5079545;28;20954;-79
2022/09/06 02:56:35;;;;;;;5.77;2.30;;;18.30;99.90;;;;;;5088964;28;21178;-81
2022/09/06 02:59:04;;;;;;;2.53;2.10;;;18.30;99.90;;;;;;5078688;28;20645;-80
2022/09/06 03:01:31;;;;;;;3.27;2.50;;;18.30;99.90;;;;;;5075809;28;20644;-81
2022/09/06 03:04:00;;;;;;;2.60;2.40;;;18.30;99.90;;;;;;5080418;28;20653;-81
2022/09/06 03:06:27;;;;;;;3.53;2.73;;;18.30;99.90;;;;;;5068790;28;20652;-80
2022/09/06 03:08:54;;;;;;;2.87;2.67;;;18.20;99.90;;;;;;5083545;28;21341;-80
2022/09/06 03:11:21;;;;;;;3.27;2.40;;;18.00;99.90;;;;;;5069453;28;20653;-81
2022/09/06 03:13:49;;;;;;;2.97;2.67;;;18.10;99.90;;;;;;5086210;28;20727;-80
2022/09/06 03:16:17;;;;;;;3.07;2.53;;;17.90;99.90;;;;;;5075700;28;21073;-80
2022/09/06 03:18:43;;;;;;;2.47;2.27;;;17.80;99.90;;;;;;5081956;28;20740;-80
2022/09/06 03:21:12;;;;;;;4.30;2.90;;;17.80;99.90;;;;;;5089577;28;20631;-80
2022/09/06 03:23:39;;;;;;;2.97;2.77;;;17.60;99.90;;;;;;5089247;28;20723;-80
2022/09/06 03:26:06;;;;;;;2.50;2.30;;;17.60;99.90;;;;;;5072729;28;20639;-79
2022/09/06 03:28:34;;;;;;;3.23;2.70;;;17.60;99.90;;;;;;5087342;28;20628;-79
2022/09/06 03:31:01;;;;;;;3.17;2.33;;;17.50;99.90;;;;;;5082421;28;20631;-80
2022/09/06 03:33:28;;;;;;;4.20;3.07;;;17.50;99.90;;;;;;5086746;28;20628;-80
2022/09/06 03:35:56;;;;;;;3.10;2.77;;;17.50;99.90;;;;;;5075093;28;20700;-80
2022/09/06 03:38:25;;;;;;;3.37;2.67;;;17.50;99.90;;;;;;5047909;28;20660;-80
2022/09/06 03:40:53;;;;;;;3.67;2.57;;;17.60;99.90;;;;;;5075351;28;20628;-80
2022/09/06 03:43:21;;;;;;;3.77;2.33;;;17.50;99.90;;;;;;5071380;28;20633;-81
2022/09/06 03:45:50;;;;;;;2.83;2.57;;;17.50;99.90;;;;;;5058717;28;20666;-80
2022/09/06 03:48:18;;;;;;;2.60;2.03;;;17.60;99.90;;;;;;5069538;28;21182;-80
2022/09/06 03:50:46;;;;;;;2.90;2.50;;;17.60;99.90;;;;;;5073170;28;20618;-81
2022/09/06 03:53:14;;;;;;;3.03;2.47;;;17.50;99.90;;;;;;5075817;28;20617;-80
2022/09/06 03:55:44;;;;;;;3.00;2.70;;;17.40;99.90;;;;;;5088289;28;20672;-80
2022/09/06 03:58:11;;;;;;;2.97;2.53;;;17.50;99.90;;;;;;5070247;28;20724;-80
2022/09/06 04:00:38;;;;;;;3.07;2.43;;;17.50;99.90;;;;;;5078955;28;20620;-80
2022/09/06 04:03:05;;;;;;;2.70;2.50;;;17.50;99.90;;;;;;5079673;28;20731;-81
2022/09/06 04:05:32;;;;;;;3.60;2.70;;;17.60;99.90;;;;;;5083183;28;20749;-81
2022/09/06 04:07:59;;;;;;;3.73;2.70;;;17.60;99.90;;;;;;5074464;28;20635;-80
2022/09/06 04:10:25;;;;;;;4.63;3.03;;;17.70;99.90;;;;;;5086473;28;20768;-80
2022/09/06 04:12:54;;;;;;;3.23;3.03;;;17.60;99.90;;;;;;5070701;28;21167;-80
2022/09/06 04:15:21;;;;;;;3.73;3.37;;;17.40;99.90;;;;;;5067984;28;20756;-80
2022/09/06 04:17:47;;;;;;;3.60;2.40;;;17.30;99.90;;;;;;5076292;28;21195;-80
2022/09/06 04:20:16;;;;;;;3.27;2.67;;;17.40;99.90;;;;;;5068806;28;20622;-80
2022/09/06 04:22:43;;;;;;;8.43;3.40;;;17.40;99.90;;;;;;5053453;28;20668;-82
2022/09/06 04:25:12;;;;;;;5.10;4.10;;;17.50;99.90;;;;;;5075716;28;20728;-81
2022/09/06 04:27:39;;;;;;;3.67;2.83;;;17.60;99.90;;;;;;5077222;28;20645;-80
2022/09/06 04:30:09;;;;;;;3.23;2.40;;;17.60;99.90;;;;;;5068903;28;21296;-81
2022/09/06 04:32:36;;;;;;;2.70;2.50;;;17.80;99.90;;;;;;5070411;28;20619;-80
2022/09/06 04:35:03;;;;;;;3.47;3.00;;;17.80;99.90;;;;;;5053363;28;20686;-82
2022/09/06 04:37:29;;;;;;;3.17;2.87;;;17.80;99.90;;;;;;5068921;28;20633;-79
2022/09/06 04:39:56;;;;;;;2.97;2.57;;;17.80;99.90;;;;;;5078978;28;21318;-80
2022/09/06 04:42:23;;;;;;;3.00;2.70;;;17.80;99.90;;;;;;5060534;28;20650;-79
2022/09/06 04:44:50;;;;;;;3.20;2.83;;;17.70;99.90;;;;;;5061170;28;20618;-79
2022/09/06 04:47:18;;;;;;;2.73;2.53;;;17.70;99.90;;;;;;5080830;28;20617;-82
2022/09/06 04:49:47;;;;;;;4.80;2.87;;;17.70;99.90;;;;;;5063205;28;20724;-80
2022/09/06 04:52:13;;;;;;;4.17;3.13;;;17.70;99.90;;;;;;5067435;28;20633;-81
2022/09/06 04:54:40;;;;;;;3.17;2.87;;;17.70;99.90;;;;;;5084138;28;20648;-80
2022/09/06 04:57:07;;;;;;;4.30;2.80;;;17.70;99.90;;;;;;5081509;28;20617;-81
2022/09/06 04:59:34;;;;;;;3.63;3.33;;;17.70;99.90;;;;;;5080144;28;21174;-80
2022/09/06 05:02:01;;;;;;;2.80;2.47;;;17.60;99.90;;;;;;5082894;28;20633;-82
2022/09/06 05:04:29;;;;;;;3.00;2.80;;;17.60;99.90;;;;;;5065797;28;20737;-85
2022/09/06 05:07:03;;;;;;;3.13;2.83;;;17.70;99.90;;;;;;5069934;28;20689;-83
2022/09/06 05:09:30;;;;;;;5.03;3.30;;;17.70;99.90;;;;;;5067739;28;21109;-85
2022/09/06 05:11:57;;;;;;;6.60;2.60;;;17.80;99.90;;;;;;5067986;28;20759;-83
2022/09/06 05:14:24;;;;;;;3.30;2.80;;;17.70;99.90;;;;;;5076172;28;20717;-85
2022/09/06 05:16:51;;;;;;;4.00;3.30;;;17.70;99.90;;;;;;5072373;28;20745;-85
2022/09/06 05:19:18;;;;;;;3.33;2.73;;;17.70;99.90;;;;;;5067400;28;20633;-83
2022/09/06 05:21:46;;;;;;;3.70;3.40;;;17.70;99.90;;;;;;5077128;28;20625;-82
2022/09/06 05:24:13;;;;;;;2.30;2.10;;;17.60;99.90;;;;;;5086095;28;21094;-82
2022/09/06 05:26:40;;;;;;;2.60;2.40;;;17.60;99.90;;;;;;5066955;28;20686;-82
2022/09/06 05:29:07;;;;;;;3.43;2.83;;;17.50;99.90;;;;;;5074348;28;20724;-83
2022/09/06 05:31:35;;;;;;;2.73;2.50;;;17.60;99.90;;;;;;5072534;28;20713;-82
2022/09/06 05:34:02;;;;;;;3.90;3.50;;;17.70;99.90;;;;;;5067739;28;21167;-84
2022/09/06 05:36:30;;;;;;;2.63;2.43;;;17.60;99.90;;;;;;5065364;28;20673;-83
2022/09/06 05:38:59;;;;;;;4.03;2.80;;;17.50;99.90;;;;;;5082845;28;20669;-81
2022/09/06 05:41:26;;;;;;;5.50;2.80;;;17.40;99.90;;;;;;5070208;28;20634;-82
2022/09/06 05:43:53;;;;;;;3.20;2.90;;;17.20;99.90;;;;;;5079703;28;20744;-83
2022/09/06 05:46:20;;;;;;;2.83;2.63;;;17.20;99.90;;;;;;5076830;28;20748;-84
2022/09/06 05:48:53;;;;;;;2.73;2.53;;;17.20;99.90;;;;;;5065159;28;20702;-84
2022/09/06 05:51:20;;;;;;;3.40;2.80;;;17.30;99.90;;;;;;5084952;28;20982;-83
2022/09/06 05:53:47;;;;;;;2.87;2.50;;;17.40;99.90;;;;;;5072456;28;20664;-83
2022/09/06 05:56:16;;;;;;;3.53;3.23;;;17.50;99.90;;;;;;5068198;28;20705;-84
2022/09/06 05:58:43;;;;;;;3.30;2.57;;;17.50;99.90;;;;;;5086093;28;21035;-84
2022/09/06 06:01:16;;;;;;;3.23;2.77;;;17.60;99.90;;;;;;5076256;28;20638;-85
2022/09/06 06:03:49;;;;;;;5.47;3.13;;;17.70;99.90;;;;;;5068310;28;20625;-83
2022/09/06 06:06:16;;;;;;;4.53;3.00;;;17.70;99.90;;;;;;5066392;28;20657;-83
2022/09/06 06:08:43;;;;;;;3.20;3.00;;;17.70;99.90;;;;;;5082101;28;20684;-85
2022/09/06 06:11:10;;;;;;;3.67;2.90;;;17.80;99.90;;;;;;5088673;28;20663;-85
2022/09/06 06:13:39;;;;;;;3.77;3.00;;;17.80;99.90;;;;;;5078670;28;20610;-84
2022/09/06 06:16:06;;;;;;;3.73;2.50;;;17.80;99.90;;;;;;5070364;28;20745;-83
2022/09/06 06:18:33;;;;;;;3.17;2.87;;;17.80;99.90;;;;;;5081239;28;20735;-83
2022/09/06 06:21:12;;;;;;;2.87;2.57;;;17.80;99.90;;;;;;5088060;28;20626;-84
2022/09/06 06:23:39;;;;;;;4.33;3.27;;;17.80;99.90;;;;;;5070857;28;21037;-83
2022/09/06 06:26:07;;;;;;;3.40;3.10;;;17.80;99.90;;;;;;5084317;28;20671;-84
2022/09/06 06:28:34;;;;;;;3.80;2.97;;;18.00;99.90;;;;;;5081016;28;20652;-82
2022/09/06 06:31:02;;;;;;;2.73;2.47;;;18.00;99.90;;;;;;5088269;28;20630;-82
2022/09/06 06:33:29;;;;;;;5.20;3.77;;;18.10;99.90;;;;;;5071609;28;21161;-83
2022/09/06 06:36:01;;;;;;;3.03;2.77;;;18.10;99.90;;;;;;5081303;28;20675;-85
2022/09/06 06:38:32;;;;;;;4.17;3.70;;;18.20;99.90;;;;;;5082584;28;20668;-83
2022/09/06 06:40:59;;;;;;;3.40;3.10;;;18.30;99.90;;;;;;5082189;28;20646;-82
2022/09/06 06:43:26;;;;;;;3.90;3.60;;;18.30;99.90;;;;;;5053910;28;20737;-82
2022/09/06 06:45:53;;;;;;;4.10;3.70;;;18.30;99.90;;;;;;5070279;28;21253;-83
2022/09/06 06:48:21;;;;;;;4.63;3.90;;;18.40;99.90;;;;;;5077575;28;20651;-83
2022/09/06 06:50:48;;;;;;;5.13;3.73;;;18.60;99.90;;;;;;5081738;28;20715;-83
2022/09/06 06:53:15;;;;;;;4.10;3.30;;;18.80;99.90;;;;;;5070181;28;20657;-83
2022/09/06 06:55:47;;;;;;;3.43;3.13;;;18.80;99.90;;;;;;5073950;28;20956;-84
2022/09/06 06:58:14;;;;;;;7.73;4.13;;;18.80;99.90;;;;;;5079256;28;21257;-83
2022/09/06 07:00:41;;;;;;;3.17;2.87;;;19.10;99.90;;;;;;5074536;28;20711;-83
2022/09/06 07:03:08;;;;;;;4.50;3.63;;;19.30;99.90;;;;;;5068604;28;20732;-84
2022/09/06 07:05:37;;;;;;;4.87;3.67;;;19.50;99.90;;;;;;5073062;28;20641;-84
2022/09/06 07:08:04;;;;;;;5.73;3.07;;;19.70;99.90;;;;;;5069649;28;21121;-83
2022/09/06 07:10:31;;;;;;;3.57;3.27;;;19.80;99.90;;;;;;5075013;28;20731;-82
2022/09/06 07:12:58;;;;;;;3.73;2.80;;;19.90;99.90;;;;;;5081066;28;20667;-83
2022/09/06 07:15:25;;;;;;;2.87;2.60;;;20.10;99.90;;;;;;5068518;28;20756;-84
2022/09/06 07:17:54;;;;;;;4.00;3.20;;;19.90;99.90;;;;;;5069513;28;21035;-83
2022/09/06 07:20:21;;;;;;;5.43;2.87;;;20.00;99.90;;;;;;5068730;28;21068;-83
2022/09/06 07:22:59;;;;;;;4.70;3.37;;;20.10;99.90;;;;;;5079417;28;20674;-82
2022/09/06 07:25:26;;;;;;;3.57;2.70;;;20.20;99.90;;;;;;5072024;28;20618;-82
2022/09/06 07:27:57;;;;;;;4.63;3.07;;;20.40;99.90;;;;;;5078090;28;20631;-83
2022/09/06 07:30:24;;;;;;;3.20;2.90;;;20.30;99.90;;;;;;5070239;28;20988;-83
2022/09/06 07:32:51;;;;;;;4.83;2.80;;;20.20;99.90;;;;;;5069496;28;20609;-83
2022/09/06 07:35:19;;;;;;;4.20;3.07;;;20.10;99.90;;;;;;5080711;28;20668;-83
2022/09/06 07:37:54;;;;;;;2.93;2.57;;;20.10;99.90;;;;;;5070743;28;20628;-82
2022/09/06 07:40:21;;;;;;;4.30;2.83;;;20.10;99.90;;;;;;5070544;28;20624;-83
2022/09/06 07:42:48;;;;;;;4.10;3.10;;;20.20;99.90;;;;;;5058291;28;20641;-83
2022/09/06 07:45:15;;;;;;;4.20;2.97;;;20.30;99.90;;;;;;5068929;28;21254;-84
2022/09/06 07:47:42;;;;;;;4.27;2.83;;;20.40;99.90;;;;;;5083052;28;20628;-82
2022/09/06 07:50:09;;;;;;;3.20;2.90;;;20.60;99.90;;;;;;5069643;28;20622;-83
2022/09/06 07:52:36;;;;;;;2.00;1.90;;;20.70;99.90;;;;;;5088381;28;20656;-84
2022/09/06 07:55:05;;;;;;;2.60;2.40;;;20.70;99.90;;;;;;5084429;28;21350;-83
2022/09/06 07:57:32;;;;;;;2.50;2.30;;;21.00;99.90;;;;;;5068622;28;20766;-83
2022/09/06 08:00:00;;;;;;;2.40;2.20;;;21.20;99.90;;;;;;5080086;28;20649;-83
2022/09/06 08:02:27;;;;;;;2.70;2.50;;;21.30;99.60;;;;;;5069560;28;20626;-83
2022/09/06 08:04:55;;;;;;;2.43;2.23;;;21.40;99.90;;;;;;5069037;28;21245;-84
2022/09/06 08:07:23;;;;;;;2.90;2.70;;;21.50;99.90;;;;;;5087662;28;20678;-82
2022/09/06 08:09:50;;;;;;;2.53;2.33;;;21.60;98.70;;;;;;5072991;28;20632;-82
2022/09/06 08:12:18;;;;;;;2.77;2.57;;;21.60;98.40;;;;;;5070565;28;20987;-82
2022/09/06 08:14:45;;;;;;;6.27;3.20;;;21.70;98.40;;;;;;5087205;28;20728;-81
2022/09/06 08:17:12;;;;;;;3.53;2.80;;;21.80;98.10;;;;;;5081149;28;20765;-82
2022/09/06 08:19:39;;;;;;;3.00;2.70;;;22.00;98.00;;;;;;5086292;28;21104;-82
2022/09/06 08:22:06;;;;;;;2.90;2.60;;;22.10;98.10;;;;;;5071747;28;20718;-82
2022/09/06 08:24:34;;;;;;;2.73;2.30;;;22.10;98.10;;;;;;5087993;28;21430;-82
2022/09/06 08:27:01;;;;;;;3.13;2.63;;;22.20;98.30;;;;;;5085722;28;20678;-81
2022/09/06 08:29:29;;;;;;;3.07;2.77;;;22.40;97.30;;;;;;5069302;28;20610;-82
2022/09/06 08:31:56;;;;;;;2.40;2.20;;;22.50;98.00;;;;;;5073779;28;20689;-82
2022/09/06 08:34:23;;;;;;;2.63;2.42;;;22.70;97.00;;;;;;5071751;28;20833;-83
2022/09/06 08:36:50;;;;;;;2.80;2.60;;;22.80;95.70;;;;;;5073201;28;20230;-83
2022/09/06 08:39:17;;;;;;;3.07;2.77;;;22.90;95.40;;;;;;5069995;28;21041;-83
2022/09/06 08:41:52;;;;;;;2.50;2.30;;;23.00;95.20;;;;;;5063453;28;20637;-82
2022/09/06 08:44:21;;;;;;;2.60;2.40;;;23.10;94.60;;;;;;5055741;28;20616;-82
2022/09/06 08:46:56;;;;;;;2.90;2.70;;;23.20;94.80;;;;;;5066692;28;20657;-83
2022/09/06 08:49:25;;;;;;;2.57;2.20;;;23.20;95.20;;;;;;5066393;28;20723;-84
2022/09/06 08:52:19;;;;;;;2.37;2.17;;;23.30;94.60;;;;;;5067017;28;21017;-83
2022/09/06 08:54:51;;;;;;;2.47;2.27;;;23.10;96.50;;;;;;5067427;28;20740;-83
2022/09/06 08:57:31;;;;;;;2.60;2.40;;;23.20;95.60;;;;;;5067764;28;20785;-82
2022/09/06 09:00:05;;;;;;;2.40;2.20;;;23.20;94.70;;;;;;5067897;28;21226;-82
2022/09/06 09:02:42;;;;;;;3.10;2.80;;;23.40;95.40;;;;;;5067762;28;21240;-81
2022/09/06 09:05:19;;;;;;;4.17;2.50;;;23.30;95.10;;;;;;5066527;28;20621;-82
2022/09/06 09:07:52;;;;;;;2.97;2.67;;;23.50;94.20;;;;;;5068357;28;20724;-82
2022/09/06 09:10:25;;;;;;;2.60;2.40;;;23.80;94.00;;;;;;5066554;28;20724;-82
2022/09/06 09:12:53;;;;;;;2.87;2.67;;;23.80;94.20;;;;;;5066805;28;20653;-83
2022/09/06 09:15:20;;;;;;;3.10;2.80;;;23.80;95.90;;;;;;5066168;28;21446;-83
2022/09/06 09:17:51;;;;;;;2.03;1.83;;;23.90;94.30;;;;;;5066906;28;20722;-82
2022/09/06 09:20:19;;;;;;;4.27;2.60;;;24.10;93.90;;;;;;5066390;28;20641;-83
2022/09/06 09:22:47;;;;;;;2.50;2.20;;;24.20;94.00;;;;;;5067139;28;20666;-82
2022/09/06 09:25:19;;;;;;;2.57;2.37;;;24.30;94.60;;;;;;5068039;28;20720;-83
2022/09/06 09:27:46;;;;;;;2.63;2.43;;;24.60;94.00;;;;;;5067937;28;20639;-83
2022/09/06 09:30:16;;;;;;;3.80;2.53;;;24.70;93.50;;;;;;5067309;28;20712;-83
2022/09/06 09:32:46;;;;;;;2.30;2.10;;;24.70;92.80;;;;;;5068028;28;20745;-83
2022/09/06 09:35:22;;;;;;;4.23;2.30;;;24.70;93.40;;;;;;5067374;28;20664;-82
2022/09/06 09:37:56;;;;;;;2.70;2.40;;;24.40;93.90;;;;;;5070859;28;20768;-81
2022/09/06 09:40:32;;;;;;;2.40;2.20;;;24.40;93.40;;;;;;5085405;28;20195;-81
2022/09/06 09:43:15;;;;;;;3.63;2.40;;;24.60;93.00;;;;;;5081075;28;20620;-81
2022/09/06 09:45:42;;;;;;;2.70;2.53;;;24.80;93.10;;;;;;5051288;28;20684;-81
2022/09/06 09:48:21;;;;;;;2.53;2.33;;;25.00;92.00;;;;;;5050613;28;20614;-82
2022/09/06 09:50:49;;;;;;;4.73;2.27;;;25.10;92.90;;;;;;5070327;28;20728;-80
2022/09/06 09:53:19;;;;;;;3.37;2.20;;;25.20;92.90;;;;;;5069712;28;20631;-80
2022/09/06 09:55:46;;;;;;;3.30;3.00;;;25.30;92.30;;;;;;5070803;28;20673;-79
2022/09/06 09:58:29;;;;;;;3.10;2.60;;;25.50;91.70;;;;;;5069347;28;20671;-79
2022/09/06 10:01:16;;;;;;;3.50;2.67;;;25.60;92.40;;;;;;5069079;28;21061;-80
2022/09/06 10:03:43;;;;;;;1.90;1.80;;;25.60;92.70;;;;;;5070350;28;21166;-80
2022/09/06 10:06:14;;;;;;;2.37;2.07;;;25.80;91.70;;;;;;5070838;28;20622;-79
2022/09/06 10:08:43;;;;;;;3.53;2.37;;;25.90;91.70;;;;;;5070491;28;20625;-79
2022/09/06 10:11:14;;;;;;;2.10;1.80;;;26.00;92.40;;;;;;5071102;28;20985;-80
2022/09/06 10:13:42;;;;;;;3.53;2.57;;;26.20;91.20;;;;;;5070581;28;20617;-80
2022/09/06 10:16:09;;;;;;;3.67;2.57;;;26.20;90.40;;;;;;5057750;28;20661;-80
2022/09/06 10:18:38;;;;;;;2.23;2.03;;;26.40;90.10;;;;;;5050039;28;20618;-80
2022/09/06 10:21:07;;;;;;;1.60;1.50;;;26.40;90.00;;;;;;5051678;28;20691;-79
2022/09/06 10:23:48;;;;;;;2.43;2.23;;;26.30;89.30;;;;;;5070410;28;20622;-80
2022/09/06 10:26:23;;;;;;;2.57;2.37;;;26.30;89.40;;;;;;5069958;28;20639;-80
2022/09/06 10:28:54;;;;;;;2.33;2.13;;;26.40;90.10;;;;;;5069989;28;20615;-80
2022/09/06 10:31:52;;;;;;;3.10;2.80;;;26.50;88.50;;;;;;5049423;28;20737;-80
2022/09/06 10:35:03;;;;;;;2.93;2.47;;;26.80;89.50;;;;;;5066400;28;20632;-80
2022/09/06 10:37:44;;;;;;;3.50;2.30;;;26.70;89.60;;;;;;4980886;28;20662;-80
2022/09/06 10:40:24;;;;;;;2.37;2.17;;;26.50;90.00;;;;;;5066789;28;20637;-80
2022/09/06 10:42:54;;;;;;;3.00;2.80;;;26.30;90.90;;;;;;5056776;28;20628;-80
2022/09/06 10:45:33;;;;;;;2.73;2.53;;;26.20;91.20;;;;;;5066113;28;20954;-80
2022/09/06 10:48:03;;;;;;;2.60;2.40;;;26.20;90.30;;;;;;5079413;28;20628;-80
2022/09/06 10:50:41;;;;;;;6.23;2.60;;;26.10;91.20;;;;;;5049909;28;20674;-80
2022/09/06 10:53:16;;;;;;;2.73;2.47;;;26.10;91.20;;;;;;5065127;28;20622;-80
2022/09/06 10:55:48;;;;;;;2.93;2.50;;;25.90;90.90;;;;;;5070818;28;20629;-80
2022/09/06 10:58:22;;;;;;;3.80;3.50;;;26.00;91.20;;;;;;5080192;28;20721;-80
2022/09/06 11:00:52;;;;;;;2.93;2.70;;;25.90;91.60;;;;;;5080353;28;20628;-80
2022/09/06 11:03:26;;;;;;;2.60;2.23;;;25.90;91.50;;;;;;5089707;28;20623;-80
2022/09/06 11:05:58;;;;;;;2.90;2.70;;;25.90;91.60;;;;;;5088006;28;21185;-81
2022/09/06 11:08:31;;;;;;;4.00;2.73;;;25.90;92.10;;;;;;5075753;28;20625;-80
2022/09/06 11:11:06;;;;;;;2.83;2.63;;;25.80;92.20;;;;;;5076601;28;21011;-80
2022/09/06 11:13:32;;;;;;;2.80;2.60;;;25.90;91.80;;;;;;5089900;28;20722;-80
2022/09/06 11:16:07;;;;;;;2.67;2.47;;;25.90;92.30;;;;;;5084448;28;20635;-80
2022/09/06 11:18:39;;;;;;;2.40;2.20;;;25.80;91.60;;;;;;5086379;28;20705;-80
2022/09/06 11:21:30;;;;;;;3.67;2.37;;;25.80;92.00;;;;;;5082570;28;20625;-79
2022/09/06 11:24:05;;;;;;;4.20;3.50;;;25.80;93.30;;;;;;5069242;28;20636;-80
2022/09/06 11:26:36;;;;;;;2.67;2.47;;;25.80;90.80;;;;;;5071514;28;20646;-80
2022/09/06 11:29:08;;;;;;;2.43;2.23;;;26.00;90.30;;;;;;5075455;28;20617;-80
2022/09/06 11:31:50;;;;;;;2.83;2.10;;;26.20;89.50;;;;;;5070337;28;20631;-80
2022/09/06 11:34:22;;;;;;;2.70;2.50;;;26.20;90.00;;;;;;5070590;28;20627;-80
2022/09/06 11:36:51;;;;;;;2.83;2.63;;;26.30;90.60;;;;;;5068162;28;20702;-80
2022/09/06 11:39:25;;;;;;;2.63;2.43;;;26.20;90.20;;;;;;5072286;28;21370;-80
2022/09/06 11:41:53;;;;;;;2.57;2.37;;;26.00;90.40;;;;;;5058107;28;20741;-80
2022/09/06 11:44:52;;;;;;;2.50;2.27;;;26.30;90.60;;;;;;5079205;28;20741;-80
2022/09/06 11:47:37;;;;;;;2.60;2.40;;;26.40;90.80;;;;;;5052666;28;20622;-80
2022/09/06 11:50:25;;;;;;;3.23;2.93;;;26.80;87.50;;;;;;5081147;28;20652;-80
2022/09/06 11:52:59;;;;;;;3.77;2.80;;;26.80;88.90;;;;;;5073941;28;20627;-81
2022/09/06 11:55:35;;;;;;;2.93;2.67;;;26.80;87.70;;;;;;5068061;28;20645;-81
2022/09/06 11:58:08;;;;;;;2.97;2.23;;;27.00;86.40;;;;;;5078225;28;20686;-80
2022/09/06 12:00:35;;;;;;;3.17;2.33;;;27.30;86.50;;;;;;5070338;28;20657;-80
2022/09/06 12:03:03;;;;;;;2.07;1.87;;;27.40;84.50;;;;;;5068848;28;20625;-81
2022/09/06 12:05:31;;;;;;;5.07;2.43;;;27.50;82.70;;;;;;5087483;28;20632;-81
2022/09/06 12:08:30;;;;;;;2.37;2.17;;;27.20;85.60;;;;;;5086528;28;20632;-81
2022/09/06 12:11:02;;;;;;;1.63;1.53;;;27.10;85.10;;;;;;5067392;28;20637;-81
2022/09/06 12:13:53;;;;;;;2.57;2.37;;;27.10;83.30;;;;;;5069427;28;20622;-81
2022/09/06 12:16:20;;;;;;;1.80;1.70;;;27.20;84.40;;;;;;5061827;28;20667;-80
2022/09/06 12:18:59;;;;;;;3.03;2.50;;;27.20;84.10;;;;;;5079814;28;20664;-81
2022/09/06 12:21:38;;;;;;;2.63;2.43;;;27.30;81.80;;;;;;5079923;28;20621;-81
2022/09/06 12:24:06;;;;;;;2.10;1.93;;;27.20;83.60;;;;;;5068487;28;20660;-81
2022/09/06 12:26:51;;;;;;;1.90;1.70;;;27.20;83.10;;;;;;5077210;28;20630;-80
2022/09/06 12:29:24;;;;;;;3.70;2.83;;;27.40;81.80;;;;;;5068032;28;20955;-81
2022/09/06 12:31:53;;;;;;;3.00;2.27;;;27.40;81.00;;;;;;5068567;28;20624;-81
2022/09/06 12:34:23;;;;;;;2.70;2.50;;;27.50;80.00;;;;;;5068044;28;20614;-82
2022/09/06 12:36:58;;;;;;;2.30;2.10;;;27.40;80.70;;;;;;5059514;28;20632;-80
2022/09/06 12:39:26;;;;;;;2.57;2.37;;;27.50;79.00;;;;;;5068757;28;20643;-81
2022/09/06 12:41:56;;;;;;;2.13;2.03;;;27.40;79.60;;;;;;5065783;28;20622;-81
2022/09/06 12:44:36;;;;;;;2.07;1.90;;;27.40;79.90;;;;;;5075403;28;20811;-81
2022/09/06 12:47:09;;;;;;;1.70;1.60;;;27.30;79.20;;;;;;5050366;28;20733;-82
2022/09/06 12:49:36;;;;;;;4.70;2.13;;;27.20;80.80;;;;;;5078797;28;20625;-81
2022/09/06 12:52:09;;;;;;;2.30;1.70;;;27.30;81.40;;;;;;5073231;28;20689;-81
2022/09/06 12:54:44;;;;;;;1.60;1.50;;;27.30;80.20;;;;;;5087642;28;21287;-82
2022/09/06 12:57:13;;;;;;;4.17;2.23;;;27.10;78.20;;;;;;5075442;28;20688;-81
2022/09/06 12:59:53;;;;;;;1.60;1.50;;;27.20;75.90;;;;;;5076966;28;21065;-81
2022/09/06 13:02:28;;;;;;;2.33;2.13;;;27.20;75.40;;;;;;5071839;28;20631;-81
2022/09/06 13:05:01;;;;;;;2.10;1.60;;;27.00;80.00;;;;;;5047711;28;20618;-81
2022/09/06 13:07:30;;;;;;;2.17;1.97;;;26.80;81.70;;;;;;5086082;28;20613;-81